sensor_id;sensor_type;location;lat;lon;timestamp;temperature;humidity
7362;DHT22;3721;44.490;11.220;2022-07-22T00:02:07;29.00;54.00
7362;DHT22;3721;44.490;11.220;2022-07-22T00:04:32;29.00;54.00
7362;DHT22;3721;44.490;11.220;2022-07-22T00:06:58;29.00;54.10
7362;DHT22;3721;44.490;11.220;2022-07-22T00:09:24;28.90;54.10
7362;DHT22;3721;44.490;11.220;2022-07-22T00:11:50;28.90;54.20
7362;DHT22;3721;44.490;11.220;2022-07-22T00:14:16;28.90;54.40
7362;DHT22;3721;44.490;11.220;2022-07-22T00:16:41;28.90;54.60
7362;DHT22;3721;44.490;11.220;2022-07-22T00:19:07;28.90;54.60
7362;DHT22;3721;44.490;11.220;2022-07-22T00:21:33;28.80;54.70
7362;DHT22;3721;44.490;11.220;2022-07-22T00:23:59;28.70;54.90
7362;DHT22;3721;44.490;11.220;2022-07-22T00:26:25;28.70;55.10
7362;DHT22;3721;44.490;11.220;2022-07-22T00:28:51;28.70;55.30
7362;DHT22;3721;44.490;11.220;2022-07-22T00:31:16;28.70;55.40
7362;DHT22;3721;44.490;11.220;2022-07-22T00:33:42;28.70;55.50
7362;DHT22;3721;44.490;11.220;2022-07-22T00:36:08;28.70;55.50
7362;DHT22;3721;44.490;11.220;2022-07-22T00:38:34;28.70;55.60
7362;DHT22;3721;44.490;11.220;2022-07-22T00:41:00;28.80;55.70
7362;DHT22;3721;44.490;11.220;2022-07-22T00:43:26;28.70;55.70
7362;DHT22;3721;44.490;11.220;2022-07-22T00:45:52;28.80;56.00
7362;DHT22;3721;44.490;11.220;2022-07-22T00:48:18;28.80;56.00
7362;DHT22;3721;44.490;11.220;2022-07-22T00:50:45;28.70;56.10
7362;DHT22;3721;44.490;11.220;2022-07-22T00:53:11;28.70;56.20
7362;DHT22;3721;44.490;11.220;2022-07-22T00:55:37;28.70;56.30
7362;DHT22;3721;44.490;11.220;2022-07-22T00:58:04;28.70;56.40
7362;DHT22;3721;44.490;11.220;2022-07-22T01:00:30;28.70;56.50
7362;DHT22;3721;44.490;11.220;2022-07-22T01:02:56;28.70;56.60
7362;DHT22;3721;44.490;11.220;2022-07-22T01:05:22;28.60;56.50
7362;DHT22;3721;44.490;11.220;2022-07-22T01:07:47;28.60;56.60
7362;DHT22;3721;44.490;11.220;2022-07-22T01:10:13;28.60;56.70
7362;DHT22;3721;44.490;11.220;2022-07-22T01:12:39;28.60;56.70
7362;DHT22;3721;44.490;11.220;2022-07-22T01:15:06;28.60;56.90
7362;DHT22;3721;44.490;11.220;2022-07-22T01:17:32;28.60;56.90
7362;DHT22;3721;44.490;11.220;2022-07-22T01:20:01;28.60;57.00
7362;DHT22;3721;44.490;11.220;2022-07-22T01:22:27;28.50;57.00
7362;DHT22;3721;44.490;11.220;2022-07-22T01:24:52;28.50;57.10
7362;DHT22;3721;44.490;11.220;2022-07-22T01:27:18;28.50;57.20
7362;DHT22;3721;44.490;11.220;2022-07-22T01:29:44;28.50;57.40
7362;DHT22;3721;44.490;11.220;2022-07-22T01:32:10;28.40;57.40
7362;DHT22;3721;44.490;11.220;2022-07-22T01:34:35;28.30;57.50
7362;DHT22;3721;44.490;11.220;2022-07-22T01:37:01;28.30;57.80
7362;DHT22;3721;44.490;11.220;2022-07-22T01:39:27;28.20;57.90
7362;DHT22;3721;44.490;11.220;2022-07-22T01:41:53;28.20;58.10
7362;DHT22;3721;44.490;11.220;2022-07-22T01:44:18;28.10;58.20
7362;DHT22;3721;44.490;11.220;2022-07-22T01:46:44;28.10;58.30
7362;DHT22;3721;44.490;11.220;2022-07-22T01:49:10;28.00;58.40
7362;DHT22;3721;44.490;11.220;2022-07-22T01:51:36;28.00;58.70
7362;DHT22;3721;44.490;11.220;2022-07-22T01:54:01;28.00;58.80
7362;DHT22;3721;44.490;11.220;2022-07-22T01:56:27;28.00;58.90
7362;DHT22;3721;44.490;11.220;2022-07-22T01:58:53;27.90;58.90
7362;DHT22;3721;44.490;11.220;2022-07-22T02:01:19;27.90;59.00
7362;DHT22;3721;44.490;11.220;2022-07-22T02:03:44;27.80;59.20
7362;DHT22;3721;44.490;11.220;2022-07-22T02:06:10;27.80;59.30
7362;DHT22;3721;44.490;11.220;2022-07-22T02:08:36;27.80;59.40
7362;DHT22;3721;44.490;11.220;2022-07-22T02:11:02;27.80;59.50
7362;DHT22;3721;44.490;11.220;2022-07-22T02:13:27;27.80;59.60
7362;DHT22;3721;44.490;11.220;2022-07-22T02:15:53;27.70;59.60
7362;DHT22;3721;44.490;11.220;2022-07-22T02:18:19;27.70;59.70
7362;DHT22;3721;44.490;11.220;2022-07-22T02:20:46;27.70;59.80
7362;DHT22;3721;44.490;11.220;2022-07-22T02:23:12;27.60;59.90
7362;DHT22;3721;44.490;11.220;2022-07-22T02:25:39;27.60;60.70
7362;DHT22;3721;44.490;11.220;2022-07-22T02:28:05;27.60;60.10
7362;DHT22;3721;44.490;11.220;2022-07-22T02:30:31;27.60;60.10
7362;DHT22;3721;44.490;11.220;2022-07-22T02:32:58;27.60;60.20
7362;DHT22;3721;44.490;11.220;2022-07-22T02:35:24;27.50;60.30
7362;DHT22;3721;44.490;11.220;2022-07-22T02:37:50;27.50;60.50
7362;DHT22;3721;44.490;11.220;2022-07-22T02:40:16;27.50;60.50
7362;DHT22;3721;44.490;11.220;2022-07-22T02:42:42;27.40;60.50
7362;DHT22;3721;44.490;11.220;2022-07-22T02:45:08;27.40;60.70
7362;DHT22;3721;44.490;11.220;2022-07-22T02:47:35;27.40;60.80
7362;DHT22;3721;44.490;11.220;2022-07-22T02:50:00;27.40;60.90
7362;DHT22;3721;44.490;11.220;2022-07-22T02:52:26;27.40;60.90
7362;DHT22;3721;44.490;11.220;2022-07-22T02:54:52;27.40;61.00
7362;DHT22;3721;44.490;11.220;2022-07-22T02:57:18;27.40;61.00
7362;DHT22;3721;44.490;11.220;2022-07-22T02:59:44;27.40;61.00
7362;DHT22;3721;44.490;11.220;2022-07-22T03:02:10;27.40;61.00
7362;DHT22;3721;44.490;11.220;2022-07-22T03:04:36;27.40;61.10
7362;DHT22;3721;44.490;11.220;2022-07-22T03:07:02;27.40;61.20
7362;DHT22;3721;44.490;11.220;2022-07-22T03:09:27;27.50;61.40
7362;DHT22;3721;44.490;11.220;2022-07-22T03:11:53;27.40;61.40
7362;DHT22;3721;44.490;11.220;2022-07-22T03:14:19;27.40;61.50
7362;DHT22;3721;44.490;11.220;2022-07-22T03:16:45;27.40;61.50
7362;DHT22;3721;44.490;11.220;2022-07-22T03:19:11;27.30;61.50
7362;DHT22;3721;44.490;11.220;2022-07-22T03:21:37;27.30;61.60
7362;DHT22;3721;44.490;11.220;2022-07-22T03:24:03;27.30;61.70
7362;DHT22;3721;44.490;11.220;2022-07-22T03:26:29;27.30;61.80
7362;DHT22;3721;44.490;11.220;2022-07-22T03:28:54;27.30;62.00
7362;DHT22;3721;44.490;11.220;2022-07-22T03:31:20;27.30;62.00
7362;DHT22;3721;44.490;11.220;2022-07-22T03:33:46;27.20;62.00
7362;DHT22;3721;44.490;11.220;2022-07-22T03:36:12;27.20;62.10
7362;DHT22;3721;44.490;11.220;2022-07-22T03:38:38;27.20;62.10
7362;DHT22;3721;44.490;11.220;2022-07-22T03:41:04;27.10;62.10
7362;DHT22;3721;44.490;11.220;2022-07-22T03:43:30;27.10;62.20
7362;DHT22;3721;44.490;11.220;2022-07-22T03:45:56;27.00;62.30
7362;DHT22;3721;44.490;11.220;2022-07-22T03:48:21;27.00;62.50
7362;DHT22;3721;44.490;11.220;2022-07-22T03:50:47;27.00;62.70
7362;DHT22;3721;44.490;11.220;2022-07-22T03:53:15;26.90;62.70
7362;DHT22;3721;44.490;11.220;2022-07-22T03:55:41;26.90;62.80
7362;DHT22;3721;44.490;11.220;2022-07-22T03:58:07;26.90;62.80
7362;DHT22;3721;44.490;11.220;2022-07-22T04:00:33;26.90;62.80
7362;DHT22;3721;44.490;11.220;2022-07-22T04:02:59;26.90;62.70
7362;DHT22;3721;44.490;11.220;2022-07-22T04:05:24;26.90;62.70
7362;DHT22;3721;44.490;11.220;2022-07-22T04:07:50;26.90;62.80
7362;DHT22;3721;44.490;11.220;2022-07-22T04:10:16;26.90;62.80
7362;DHT22;3721;44.490;11.220;2022-07-22T04:12:42;26.90;62.80
7362;DHT22;3721;44.490;11.220;2022-07-22T04:15:08;26.90;62.70
7362;DHT22;3721;44.490;11.220;2022-07-22T04:17:34;26.90;62.80
7362;DHT22;3721;44.490;11.220;2022-07-22T04:20:00;26.90;62.80
7362;DHT22;3721;44.490;11.220;2022-07-22T04:22:29;26.90;62.70
7362;DHT22;3721;44.490;11.220;2022-07-22T04:24:55;26.90;62.80
7362;DHT22;3721;44.490;11.220;2022-07-22T04:27:21;26.90;62.70
7362;DHT22;3721;44.490;11.220;2022-07-22T04:29:47;26.90;62.80
7362;DHT22;3721;44.490;11.220;2022-07-22T04:32:13;26.80;62.80
7362;DHT22;3721;44.490;11.220;2022-07-22T04:34:38;26.80;62.90
7362;DHT22;3721;44.490;11.220;2022-07-22T04:37:04;26.90;63.10
7362;DHT22;3721;44.490;11.220;2022-07-22T04:39:30;26.90;63.30
7362;DHT22;3721;44.490;11.220;2022-07-22T04:41:56;26.90;63.20
7362;DHT22;3721;44.490;11.220;2022-07-22T04:44:22;26.90;63.30
7362;DHT22;3721;44.490;11.220;2022-07-22T04:46:47;27.00;63.30
7362;DHT22;3721;44.490;11.220;2022-07-22T04:49:13;27.00;63.30
7362;DHT22;3721;44.490;11.220;2022-07-22T04:51:39;27.00;63.10
7362;DHT22;3721;44.490;11.220;2022-07-22T04:54:05;27.00;63.00
7362;DHT22;3721;44.490;11.220;2022-07-22T04:56:30;27.00;62.90
7362;DHT22;3721;44.490;11.220;2022-07-22T04:58:56;27.00;62.90
7362;DHT22;3721;44.490;11.220;2022-07-22T05:01:22;27.00;62.90
7362;DHT22;3721;44.490;11.220;2022-07-22T05:03:48;27.00;63.00
7362;DHT22;3721;44.490;11.220;2022-07-22T05:06:14;27.10;63.00
7362;DHT22;3721;44.490;11.220;2022-07-22T05:08:39;27.10;63.00
7362;DHT22;3721;44.490;11.220;2022-07-22T05:11:06;27.10;63.00
7362;DHT22;3721;44.490;11.220;2022-07-22T05:13:32;27.20;63.20
7362;DHT22;3721;44.490;11.220;2022-07-22T05:16:02;27.20;63.40
7362;DHT22;3721;44.490;11.220;2022-07-22T05:18:29;27.20;63.40
7362;DHT22;3721;44.490;11.220;2022-07-22T05:20:54;27.30;63.70
7362;DHT22;3721;44.490;11.220;2022-07-22T05:23:20;27.30;63.60
7362;DHT22;3721;44.490;11.220;2022-07-22T05:25:46;27.30;63.30
7362;DHT22;3721;44.490;11.220;2022-07-22T05:28:12;27.30;63.30
7362;DHT22;3721;44.490;11.220;2022-07-22T05:30:37;27.40;63.10
7362;DHT22;3721;44.490;11.220;2022-07-22T05:33:03;27.40;63.50
7362;DHT22;3721;44.490;11.220;2022-07-22T05:35:29;27.50;63.70
7362;DHT22;3721;44.490;11.220;2022-07-22T05:37:55;27.50;64.10
7362;DHT22;3721;44.490;11.220;2022-07-22T05:40:21;27.60;64.10
7362;DHT22;3721;44.490;11.220;2022-07-22T05:42:47;27.70;64.50
7362;DHT22;3721;44.490;11.220;2022-07-22T05:45:13;27.90;64.90
7362;DHT22;3721;44.490;11.220;2022-07-22T05:47:39;28.30;65.00
7362;DHT22;3721;44.490;11.220;2022-07-22T05:50:05;28.60;64.70
7362;DHT22;3721;44.490;11.220;2022-07-22T05:52:31;28.90;64.50
7362;DHT22;3721;44.490;11.220;2022-07-22T05:55:00;29.20;63.70
7362;DHT22;3721;44.490;11.220;2022-07-22T05:57:26;29.40;62.50
7362;DHT22;3721;44.490;11.220;2022-07-22T05:59:52;29.70;61.90
7362;DHT22;3721;44.490;11.220;2022-07-22T06:02:17;29.90;61.40
7362;DHT22;3721;44.490;11.220;2022-07-22T06:04:43;30.00;60.50
7362;DHT22;3721;44.490;11.220;2022-07-22T06:07:09;30.10;59.70
7362;DHT22;3721;44.490;11.220;2022-07-22T06:09:35;30.30;59.00
7362;DHT22;3721;44.490;11.220;2022-07-22T06:12:00;30.30;58.40
7362;DHT22;3721;44.490;11.220;2022-07-22T06:14:26;30.50;58.20
7362;DHT22;3721;44.490;11.220;2022-07-22T06:16:52;30.60;58.10
7362;DHT22;3721;44.490;11.220;2022-07-22T06:19:18;30.70;58.00
7362;DHT22;3721;44.490;11.220;2022-07-22T06:21:44;30.80;58.20
7362;DHT22;3721;44.490;11.220;2022-07-22T06:24:09;31.00;58.00
7362;DHT22;3721;44.490;11.220;2022-07-22T06:26:35;31.10;58.20
7362;DHT22;3721;44.490;11.220;2022-07-22T06:29:01;31.40;58.40
7362;DHT22;3721;44.490;11.220;2022-07-22T06:31:26;31.60;58.30
7362;DHT22;3721;44.490;11.220;2022-07-22T06:33:52;31.80;58.00
7362;DHT22;3721;44.490;11.220;2022-07-22T06:36:18;32.10;57.50
7362;DHT22;3721;44.490;11.220;2022-07-22T06:38:44;32.30;56.80
7362;DHT22;3721;44.490;11.220;2022-07-22T06:41:10;32.50;56.00
7362;DHT22;3721;44.490;11.220;2022-07-22T06:43:36;32.70;55.10
7362;DHT22;3721;44.490;11.220;2022-07-22T06:46:02;32.90;54.70
7362;DHT22;3721;44.490;11.220;2022-07-22T06:48:27;33.10;54.60
7362;DHT22;3721;44.490;11.220;2022-07-22T06:50:54;33.30;53.70
7362;DHT22;3721;44.490;11.220;2022-07-22T06:53:20;33.40;53.10
7362;DHT22;3721;44.490;11.220;2022-07-22T06:55:46;33.50;52.50
7362;DHT22;3721;44.490;11.220;2022-07-22T06:58:12;33.60;52.10
7362;DHT22;3721;44.490;11.220;2022-07-22T07:00:37;33.70;52.00
7362;DHT22;3721;44.490;11.220;2022-07-22T07:03:03;33.80;51.70
7362;DHT22;3721;44.490;11.220;2022-07-22T07:05:30;33.90;51.30
7362;DHT22;3721;44.490;11.220;2022-07-22T07:07:56;34.20;51.00
7362;DHT22;3721;44.490;11.220;2022-07-22T07:10:22;34.30;50.40
7362;DHT22;3721;44.490;11.220;2022-07-22T07:12:48;34.40;49.40
7362;DHT22;3721;44.490;11.220;2022-07-22T07:15:14;34.50;48.70
7362;DHT22;3721;44.490;11.220;2022-07-22T07:17:40;34.60;48.20
7362;DHT22;3721;44.490;11.220;2022-07-22T07:20:06;34.60;47.80
7362;DHT22;3721;44.490;11.220;2022-07-22T07:22:33;34.70;47.20
7362;DHT22;3721;44.490;11.220;2022-07-22T07:25:04;34.70;47.00
7362;DHT22;3721;44.490;11.220;2022-07-22T07:27:30;34.70;46.80
7362;DHT22;3721;44.490;11.220;2022-07-22T07:29:56;34.70;46.70
7362;DHT22;3721;44.490;11.220;2022-07-22T07:32:21;34.70;46.60
7362;DHT22;3721;44.490;11.220;2022-07-22T07:34:47;34.70;46.60
7362;DHT22;3721;44.490;11.220;2022-07-22T07:37:13;34.70;46.70
7362;DHT22;3721;44.490;11.220;2022-07-22T07:39:39;34.80;46.60
7362;DHT22;3721;44.490;11.220;2022-07-22T07:42:05;34.80;46.60
7362;DHT22;3721;44.490;11.220;2022-07-22T07:44:30;34.80;46.50
7362;DHT22;3721;44.490;11.220;2022-07-22T07:46:56;34.90;46.50
7362;DHT22;3721;44.490;11.220;2022-07-22T07:49:22;35.00;46.50
7362;DHT22;3721;44.490;11.220;2022-07-22T07:51:49;35.10;46.00
7362;DHT22;3721;44.490;11.220;2022-07-22T07:54:14;35.20;45.70
7362;DHT22;3721;44.490;11.220;2022-07-22T07:56:40;35.30;45.60
7362;DHT22;3721;44.490;11.220;2022-07-22T07:59:06;35.30;45.30
7362;DHT22;3721;44.490;11.220;2022-07-22T08:01:32;35.40;45.40
7362;DHT22;3721;44.490;11.220;2022-07-22T08:03:58;35.50;45.50
7362;DHT22;3721;44.490;11.220;2022-07-22T08:06:25;35.60;45.30
7362;DHT22;3721;44.490;11.220;2022-07-22T08:08:51;35.70;45.30
7362;DHT22;3721;44.490;11.220;2022-07-22T08:11:17;35.80;45.10
7362;DHT22;3721;44.490;11.220;2022-07-22T08:13:42;35.90;45.00
7362;DHT22;3721;44.490;11.220;2022-07-22T08:16:08;36.00;44.50
7362;DHT22;3721;44.490;11.220;2022-07-22T08:18:34;36.00;44.30
7362;DHT22;3721;44.490;11.220;2022-07-22T08:21:00;36.10;44.40
7362;DHT22;3721;44.490;11.220;2022-07-22T08:23:25;36.20;44.20
7362;DHT22;3721;44.490;11.220;2022-07-22T08:25:51;36.20;44.30
7362;DHT22;3721;44.490;11.220;2022-07-22T08:28:17;36.20;44.50
7362;DHT22;3721;44.490;11.220;2022-07-22T08:30:44;36.20;44.60
7362;DHT22;3721;44.490;11.220;2022-07-22T08:33:10;36.20;44.30
7362;DHT22;3721;44.490;11.220;2022-07-22T08:35:35;36.20;44.60
7362;DHT22;3721;44.490;11.220;2022-07-22T08:38:02;36.20;44.80
7362;DHT22;3721;44.490;11.220;2022-07-22T08:40:28;36.10;44.70
7362;DHT22;3721;44.490;11.220;2022-07-22T08:42:54;36.20;44.10
7362;DHT22;3721;44.490;11.220;2022-07-22T08:45:20;36.10;44.00
7362;DHT22;3721;44.490;11.220;2022-07-22T08:47:51;36.10;44.10
7362;DHT22;3721;44.490;11.220;2022-07-22T08:50:18;36.00;44.10
7362;DHT22;3721;44.490;11.220;2022-07-22T08:52:44;36.00;44.30
7362;DHT22;3721;44.490;11.220;2022-07-22T08:55:10;35.90;44.30
7362;DHT22;3721;44.490;11.220;2022-07-22T08:57:36;35.90;44.70
7362;DHT22;3721;44.490;11.220;2022-07-22T09:00:13;35.90;44.60
7362;DHT22;3721;44.490;11.220;2022-07-22T09:02:41;36.00;44.60
7362;DHT22;3721;44.490;11.220;2022-07-22T09:05:10;36.00;44.80
7362;DHT22;3721;44.490;11.220;2022-07-22T09:07:38;36.00;45.30
7362;DHT22;3721;44.490;11.220;2022-07-22T09:10:10;36.00;44.50
7362;DHT22;3721;44.490;11.220;2022-07-22T09:12:53;36.00;45.20
7362;DHT22;3721;44.490;11.220;2022-07-22T09:15:38;36.00;44.70
7362;DHT22;3721;44.490;11.220;2022-07-22T09:18:07;36.10;44.70
7362;DHT22;3721;44.490;11.220;2022-07-22T09:20:35;36.00;44.20
7362;DHT22;3721;44.490;11.220;2022-07-22T09:23:01;35.90;44.30
7362;DHT22;3721;44.490;11.220;2022-07-22T09:25:34;35.90;44.40
7362;DHT22;3721;44.490;11.220;2022-07-22T09:30:42;35.90;44.70
7362;DHT22;3721;44.490;11.220;2022-07-22T09:33:10;36.00;44.70
7362;DHT22;3721;44.490;11.220;2022-07-22T09:35:37;36.00;44.70
7362;DHT22;3721;44.490;11.220;2022-07-22T09:38:08;36.00;44.60
7362;DHT22;3721;44.490;11.220;2022-07-22T09:40:37;36.00;44.20
7362;DHT22;3721;44.490;11.220;2022-07-22T09:43:06;36.00;43.80
7362;DHT22;3721;44.490;11.220;2022-07-22T09:45:51;36.00;43.90
7362;DHT22;3721;44.490;11.220;2022-07-22T09:48:20;36.00;44.10
7362;DHT22;3721;44.490;11.220;2022-07-22T09:50:48;36.10;44.20
7362;DHT22;3721;44.490;11.220;2022-07-22T09:53:15;36.00;43.50
7362;DHT22;3721;44.490;11.220;2022-07-22T09:55:41;36.00;43.60
7362;DHT22;3721;44.490;11.220;2022-07-22T09:58:07;35.80;43.40
7362;DHT22;3721;44.490;11.220;2022-07-22T10:00:38;35.80;43.70
7362;DHT22;3721;44.490;11.220;2022-07-22T10:03:06;35.80;43.80
7362;DHT22;3721;44.490;11.220;2022-07-22T10:05:36;35.80;44.10
7362;DHT22;3721;44.490;11.220;2022-07-22T10:08:05;35.80;44.10
7362;DHT22;3721;44.490;11.220;2022-07-22T10:10:32;35.80;43.90
7362;DHT22;3721;44.490;11.220;2022-07-22T10:13:00;35.80;43.90
7362;DHT22;3721;44.490;11.220;2022-07-22T10:15:27;35.80;43.90
7362;DHT22;3721;44.490;11.220;2022-07-22T10:17:59;35.90;43.50
7362;DHT22;3721;44.490;11.220;2022-07-22T10:20:28;35.80;43.40
7362;DHT22;3721;44.490;11.220;2022-07-22T10:25:31;35.80;43.70
7362;DHT22;3721;44.490;11.220;2022-07-22T10:28:03;35.80;44.00
7362;DHT22;3721;44.490;11.220;2022-07-22T10:30:37;36.00;44.20
7362;DHT22;3721;44.490;11.220;2022-07-22T10:33:15;36.00;44.20
7362;DHT22;3721;44.490;11.220;2022-07-22T10:36:05;36.10;44.40
7362;DHT22;3721;44.490;11.220;2022-07-22T10:39:15;36.20;44.10
7362;DHT22;3721;44.490;11.220;2022-07-22T10:42:13;36.20;43.80
7362;DHT22;3721;44.490;11.220;2022-07-22T10:44:59;36.10;43.80
7362;DHT22;3721;44.490;11.220;2022-07-22T10:47:53;36.10;44.00
7362;DHT22;3721;44.490;11.220;2022-07-22T10:53:08;36.10;43.80
7362;DHT22;3721;44.490;11.220;2022-07-22T10:55:36;36.20;42.70
7362;DHT22;3721;44.490;11.220;2022-07-22T11:01:05;36.20;43.00
7362;DHT22;3721;44.490;11.220;2022-07-22T11:03:33;36.20;43.00
7362;DHT22;3721;44.490;11.220;2022-07-22T11:08:46;36.20;42.90
7362;DHT22;3721;44.490;11.220;2022-07-22T11:11:12;36.30;43.10
7362;DHT22;3721;44.490;11.220;2022-07-22T11:13:39;36.20;43.10
7362;DHT22;3721;44.490;11.220;2022-07-22T11:18:51;36.20;43.70
7362;DHT22;3721;44.490;11.220;2022-07-22T11:21:29;36.20;43.20
7362;DHT22;3721;44.490;11.220;2022-07-22T11:23:57;36.20;42.80
7362;DHT22;3721;44.490;11.220;2022-07-22T11:26:35;36.20;42.70
7362;DHT22;3721;44.490;11.220;2022-07-22T11:29:01;36.10;42.70
7362;DHT22;3721;44.490;11.220;2022-07-22T11:31:27;36.10;42.70
7362;DHT22;3721;44.490;11.220;2022-07-22T11:36:34;36.10;42.70
7362;DHT22;3721;44.490;11.220;2022-07-22T11:39:00;36.20;43.20
7362;DHT22;3721;44.490;11.220;2022-07-22T11:41:29;36.20;42.90
7362;DHT22;3721;44.490;11.220;2022-07-22T11:43:56;36.20;42.90
7362;DHT22;3721;44.490;11.220;2022-07-22T11:46:22;36.20;43.00
7362;DHT22;3721;44.490;11.220;2022-07-22T11:48:52;36.20;43.10
7362;DHT22;3721;44.490;11.220;2022-07-22T11:51:18;36.30;43.30
7362;DHT22;3721;44.490;11.220;2022-07-22T11:53:44;36.30;43.30
7362;DHT22;3721;44.490;11.220;2022-07-22T11:56:10;36.30;43.00
7362;DHT22;3721;44.490;11.220;2022-07-22T11:58:47;36.30;42.90
7362;DHT22;3721;44.490;11.220;2022-07-22T12:01:17;36.40;43.30
7362;DHT22;3721;44.490;11.220;2022-07-22T12:03:49;36.50;42.50
7362;DHT22;3721;44.490;11.220;2022-07-22T12:06:16;36.50;42.20
7362;DHT22;3721;44.490;11.220;2022-07-22T12:08:45;36.40;42.30
7362;DHT22;3721;44.490;11.220;2022-07-22T12:11:14;36.40;42.40
7362;DHT22;3721;44.490;11.220;2022-07-22T12:13:49;36.50;42.60
7362;DHT22;3721;44.490;11.220;2022-07-22T12:16:23;36.50;42.20
7362;DHT22;3721;44.490;11.220;2022-07-22T12:18:56;36.40;42.30
7362;DHT22;3721;44.490;11.220;2022-07-22T12:21:24;36.50;42.50
7362;DHT22;3721;44.490;11.220;2022-07-22T12:23:55;36.40;42.50
7362;DHT22;3721;44.490;11.220;2022-07-22T12:26:48;36.40;42.50
7362;DHT22;3721;44.490;11.220;2022-07-22T12:31:56;36.50;43.00
7362;DHT22;3721;44.490;11.220;2022-07-22T12:37:15;36.60;42.20
7362;DHT22;3721;44.490;11.220;2022-07-22T12:40:03;36.60;42.00
7362;DHT22;3721;44.490;11.220;2022-07-22T12:42:35;36.60;42.30
7362;DHT22;3721;44.490;11.220;2022-07-22T12:47:44;36.60;41.80
7362;DHT22;3721;44.490;11.220;2022-07-22T12:52:46;36.60;41.90
7362;DHT22;3721;44.490;11.220;2022-07-22T12:55:12;36.60;42.10
7362;DHT22;3721;44.490;11.220;2022-07-22T12:57:38;36.60;42.30
7362;DHT22;3721;44.490;11.220;2022-07-22T13:00:04;36.60;42.40
7362;DHT22;3721;44.490;11.220;2022-07-22T13:02:30;36.60;42.30
7362;DHT22;3721;44.490;11.220;2022-07-22T13:04:56;36.60;41.70
7362;DHT22;3721;44.490;11.220;2022-07-22T13:07:22;36.60;41.50
7362;DHT22;3721;44.490;11.220;2022-07-22T13:09:47;36.60;41.50
7362;DHT22;3721;44.490;11.220;2022-07-22T13:12:13;36.70;41.60
7362;DHT22;3721;44.490;11.220;2022-07-22T13:14:39;36.70;41.50
7362;DHT22;3721;44.490;11.220;2022-07-22T13:17:06;36.70;41.40
7362;DHT22;3721;44.490;11.220;2022-07-22T13:19:32;36.70;40.90
7362;DHT22;3721;44.490;11.220;2022-07-22T13:21:57;36.70;40.90
7362;DHT22;3721;44.490;11.220;2022-07-22T13:24:23;36.80;40.60
7362;DHT22;3721;44.490;11.220;2022-07-22T13:26:49;36.80;40.80
7362;DHT22;3721;44.490;11.220;2022-07-22T13:29:15;36.80;41.00
7362;DHT22;3721;44.490;11.220;2022-07-22T13:31:41;36.80;41.70
7362;DHT22;3721;44.490;11.220;2022-07-22T13:34:07;36.80;40.70
7362;DHT22;3721;44.490;11.220;2022-07-22T13:36:33;36.80;41.00
7362;DHT22;3721;44.490;11.220;2022-07-22T13:38:59;36.80;40.50
7362;DHT22;3721;44.490;11.220;2022-07-22T13:41:26;36.80;40.30
7362;DHT22;3721;44.490;11.220;2022-07-22T13:43:51;36.80;40.30
7362;DHT22;3721;44.490;11.220;2022-07-22T13:46:18;36.80;40.20
7362;DHT22;3721;44.490;11.220;2022-07-22T13:48:44;36.80;41.00
7362;DHT22;3721;44.490;11.220;2022-07-22T13:51:10;36.80;41.00
7362;DHT22;3721;44.490;11.220;2022-07-22T13:53:37;36.80;40.40
7362;DHT22;3721;44.490;11.220;2022-07-22T13:56:03;36.90;40.20
7362;DHT22;3721;44.490;11.220;2022-07-22T13:58:29;36.90;40.10
7362;DHT22;3721;44.490;11.220;2022-07-22T14:00:56;36.90;40.20
7362;DHT22;3721;44.490;11.220;2022-07-22T14:03:22;36.90;40.40
7362;DHT22;3721;44.490;11.220;2022-07-22T14:05:48;36.90;40.60
7362;DHT22;3721;44.490;11.220;2022-07-22T14:08:14;36.90;41.20
7362;DHT22;3721;44.490;11.220;2022-07-22T14:10:39;36.90;41.10
7362;DHT22;3721;44.490;11.220;2022-07-22T14:13:05;36.90;40.30
7362;DHT22;3721;44.490;11.220;2022-07-22T14:15:32;36.90;40.10
7362;DHT22;3721;44.490;11.220;2022-07-22T14:17:58;36.90;40.10
7362;DHT22;3721;44.490;11.220;2022-07-22T14:20:24;37.00;40.30
7362;DHT22;3721;44.490;11.220;2022-07-22T14:22:50;37.00;40.40
7362;DHT22;3721;44.490;11.220;2022-07-22T14:25:16;37.00;40.30
7362;DHT22;3721;44.490;11.220;2022-07-22T14:27:41;37.00;40.30
7362;DHT22;3721;44.490;11.220;2022-07-22T14:30:08;37.00;40.20
7362;DHT22;3721;44.490;11.220;2022-07-22T14:32:33;37.00;40.00
7362;DHT22;3721;44.490;11.220;2022-07-22T14:34:59;37.00;40.00
7362;DHT22;3721;44.490;11.220;2022-07-22T14:37:26;37.00;40.00
7362;DHT22;3721;44.490;11.220;2022-07-22T14:39:52;37.00;39.90
7362;DHT22;3721;44.490;11.220;2022-07-22T14:42:18;37.00;39.90
7362;DHT22;3721;44.490;11.220;2022-07-22T14:44:44;37.00;40.00
7362;DHT22;3721;44.490;11.220;2022-07-22T14:47:09;37.00;40.00
7362;DHT22;3721;44.490;11.220;2022-07-22T14:49:35;37.00;40.20
7362;DHT22;3721;44.490;11.220;2022-07-22T14:52:01;37.00;40.40
7362;DHT22;3721;44.490;11.220;2022-07-22T14:54:27;37.00;41.00
7362;DHT22;3721;44.490;11.220;2022-07-22T14:56:52;37.00;40.50
7362;DHT22;3721;44.490;11.220;2022-07-22T14:59:18;37.00;40.30
7362;DHT22;3721;44.490;11.220;2022-07-22T15:01:44;37.00;40.50
7362;DHT22;3721;44.490;11.220;2022-07-22T15:04:10;37.00;40.20
7362;DHT22;3721;44.490;11.220;2022-07-22T15:06:36;37.00;40.20
7362;DHT22;3721;44.490;11.220;2022-07-22T15:09:01;37.00;39.70
7362;DHT22;3721;44.490;11.220;2022-07-22T15:11:27;37.00;40.00
7362;DHT22;3721;44.490;11.220;2022-07-22T15:13:53;37.00;40.10
7362;DHT22;3721;44.490;11.220;2022-07-22T15:16:19;37.00;39.60
7362;DHT22;3721;44.490;11.220;2022-07-22T15:18:44;36.90;39.80
7362;DHT22;3721;44.490;11.220;2022-07-22T15:21:10;36.90;39.70
7362;DHT22;3721;44.490;11.220;2022-07-22T15:23:36;36.80;39.70
7362;DHT22;3721;44.490;11.220;2022-07-22T15:26:02;36.80;40.30
7362;DHT22;3721;44.490;11.220;2022-07-22T15:28:29;36.80;39.80
7362;DHT22;3721;44.490;11.220;2022-07-22T15:30:58;36.80;39.60
7362;DHT22;3721;44.490;11.220;2022-07-22T15:33:24;36.80;39.30
7362;DHT22;3721;44.490;11.220;2022-07-22T15:35:50;36.70;39.40
7362;DHT22;3721;44.490;11.220;2022-07-22T15:38:15;36.70;39.40
7362;DHT22;3721;44.490;11.220;2022-07-22T15:40:41;36.70;39.60
7362;DHT22;3721;44.490;11.220;2022-07-22T15:43:08;36.60;39.50
7362;DHT22;3721;44.490;11.220;2022-07-22T15:45:34;36.60;39.60
7362;DHT22;3721;44.490;11.220;2022-07-22T15:48:01;36.60;39.70
7362;DHT22;3721;44.490;11.220;2022-07-22T15:50:27;36.50;39.80
7362;DHT22;3721;44.490;11.220;2022-07-22T15:52:53;36.50;40.00
7362;DHT22;3721;44.490;11.220;2022-07-22T15:55:19;36.50;40.50
7362;DHT22;3721;44.490;11.220;2022-07-22T15:57:45;36.50;40.10
7362;DHT22;3721;44.490;11.220;2022-07-22T16:00:30;36.50;39.50
7362;DHT22;3721;44.490;11.220;2022-07-22T16:02:57;36.40;39.10
7362;DHT22;3721;44.490;11.220;2022-07-22T16:05:23;36.40;39.50
7362;DHT22;3721;44.490;11.220;2022-07-22T16:07:49;36.40;39.70
7362;DHT22;3721;44.490;11.220;2022-07-22T16:10:15;36.40;39.40
7362;DHT22;3721;44.490;11.220;2022-07-22T16:12:41;36.40;39.40
7362;DHT22;3721;44.490;11.220;2022-07-22T16:15:08;36.30;39.30